createdAt,value
2018-12-07T00:01:31.614Z,11.37
2018-12-07T00:04:36.257Z,11.46
2018-12-07T00:07:40.954Z,11.31
2018-12-07T00:10:45.684Z,11.37
2018-12-07T00:13:50.514Z,11.29
2018-12-07T00:16:55.327Z,11.33
2018-12-07T00:20:00.047Z,11.25
2018-12-07T00:23:05.476Z,11.31
2018-12-07T00:26:10.341Z,11.39
2018-12-07T00:29:15.072Z,11.21
2018-12-07T00:32:19.899Z,11.34
2018-12-07T00:35:24.548Z,11.42
2018-12-07T00:38:29.259Z,11.53
2018-12-07T00:41:33.940Z,11.40
2018-12-07T00:44:38.565Z,11.41
2018-12-07T00:47:43.132Z,11.44
2018-12-07T00:50:47.754Z,11.68
2018-12-07T00:53:52.394Z,11.47
2018-12-07T00:56:57.104Z,11.51
2018-12-07T01:00:01.643Z,11.47
2018-12-07T01:03:06.532Z,11.50
2018-12-07T01:06:11.322Z,11.55
2018-12-07T01:09:16.208Z,11.43
2018-12-07T01:12:20.849Z,11.28
2018-12-07T01:15:25.489Z,11.37
2018-12-07T01:18:30.076Z,11.44
2018-12-07T01:21:35.048Z,11.54
2018-12-07T01:24:39.672Z,11.34
2018-12-07T01:27:44.094Z,11.23
2018-12-07T01:30:48.820Z,11.48
2018-12-07T01:33:53.405Z,11.33
2018-12-07T01:36:58.026Z,11.37
2018-12-07T01:40:02.651Z,11.37
2018-12-07T01:43:07.249Z,11.34
2018-12-07T01:46:11.871Z,11.58
2018-12-07T01:49:16.491Z,11.64
2018-12-07T01:52:21.110Z,11.56
2018-12-07T01:55:25.775Z,11.70
2018-12-07T01:58:30.340Z,11.93
2018-12-07T02:01:34.963Z,11.71
2018-12-07T02:04:39.834Z,11.82
2018-12-07T02:07:44.474Z,11.95
2018-12-07T02:10:49.199Z,11.82
2018-12-07T02:13:53.785Z,11.86
2018-12-07T02:16:58.397Z,11.83
2018-12-07T02:20:02.952Z,11.91
2018-12-07T02:23:07.508Z,11.92
2018-12-07T02:26:12.151Z,11.88
2018-12-07T02:29:16.784Z,11.84
2018-12-07T02:32:21.376Z,11.91
2018-12-07T02:35:26.069Z,11.96
2018-12-07T02:38:30.678Z,11.96
2018-12-07T02:41:35.335Z,11.83
2018-12-07T02:44:39.962Z,11.83
2018-12-07T02:47:44.706Z,11.80
2018-12-07T02:50:55.981Z,12.06
2018-12-07T02:54:00.641Z,11.92
2018-12-07T02:57:05.375Z,11.89
2018-12-07T03:00:10.744Z,12.01
2018-12-07T03:03:16.070Z,11.87
2018-12-07T03:06:20.807Z,12.03
2018-12-07T03:09:25.407Z,11.91
2018-12-07T03:12:30.082Z,11.96
2018-12-07T03:15:34.601Z,11.88
2018-12-07T03:18:39.205Z,11.90
2018-12-07T03:21:43.916Z,11.93
2018-12-07T03:24:48.506Z,11.93
2018-12-07T03:27:53.254Z,12.10
2018-12-07T03:30:58.047Z,12.04
2018-12-07T03:34:02.706Z,11.99
2018-12-07T03:37:07.316Z,11.93
2018-12-07T03:40:12.048Z,11.86
2018-12-07T03:43:16.675Z,11.98
2018-12-07T03:46:21.341Z,11.97
2018-12-07T03:49:26.077Z,11.97
2018-12-07T03:52:30.532Z,11.95
2018-12-07T03:55:35.385Z,11.99
2018-12-07T03:58:40.034Z,11.96
2018-12-07T04:01:44.610Z,11.80
2018-12-07T04:04:49.132Z,11.77
2018-12-07T04:07:53.796Z,11.77
2018-12-07T04:10:58.437Z,11.94
2018-12-07T04:14:03.271Z,11.77
2018-12-07T04:17:08.056Z,11.94
2018-12-07T04:20:12.799Z,12.01
2018-12-07T04:23:17.501Z,12.12
2018-12-07T04:26:28.658Z,12.01
2018-12-07T04:29:33.778Z,11.97
2018-12-07T04:32:38.314Z,11.98
2018-12-07T04:35:43.088Z,12.08
2018-12-07T04:38:47.639Z,11.95
2018-12-07T04:41:52.138Z,11.94
2018-12-07T04:44:56.764Z,11.89
2018-12-07T04:48:01.682Z,11.89
2018-12-07T04:51:06.242Z,11.99
2018-12-07T04:54:10.857Z,12.01
2018-12-07T04:57:15.443Z,12.08
2018-12-07T05:00:20.431Z,12.04
2018-12-07T05:03:25.082Z,12.05
2018-12-07T05:06:29.660Z,12.05
2018-12-07T05:09:34.249Z,12.02
2018-12-07T05:12:39.143Z,11.96
2018-12-07T05:15:43.942Z,11.88
2018-12-07T05:18:48.534Z,12.07
2018-12-07T05:21:53.189Z,12.15
2018-12-07T05:24:57.818Z,12.10
2018-12-07T05:28:02.456Z,11.99
2018-12-07T05:31:07.041Z,11.91
2018-12-07T05:34:11.806Z,11.98
2018-12-07T05:37:16.308Z,12.01
2018-12-07T05:40:20.882Z,12.04
2018-12-07T05:43:25.443Z,12.05
2018-12-07T05:46:30.101Z,12.11
2018-12-07T05:49:34.715Z,12.09
2018-12-07T05:52:39.332Z,12.17
2018-12-07T05:55:44.655Z,12.09
2018-12-07T05:58:49.330Z,12.07
2018-12-07T06:01:54.041Z,12.13
2018-12-07T06:04:58.673Z,12.10
2018-12-07T06:08:03.542Z,12.14
2018-12-07T06:14:22.368Z,12.07
2018-12-07T06:17:26.882Z,12.02
2018-12-07T06:20:31.596Z,12.24
2018-12-07T06:23:36.222Z,12.07
2018-12-07T06:26:40.991Z,12.10
2018-12-07T06:29:45.743Z,12.04
2018-12-07T06:32:50.526Z,12.06
2018-12-07T06:35:55.256Z,12.03
2018-12-07T06:38:59.866Z,12.26
2018-12-07T06:42:04.560Z,12.11
2018-12-07T06:45:09.314Z,12.04
2018-12-07T06:48:13.893Z,11.92
2018-12-07T06:51:18.578Z,12.14
2018-12-07T06:54:23.624Z,11.99
2018-12-07T06:57:28.280Z,12.09
2018-12-07T07:00:32.803Z,11.98
2018-12-07T07:03:37.582Z,12.13
2018-12-07T07:06:42.142Z,11.88
2018-12-07T07:09:46.690Z,12.05
2018-12-07T07:12:51.374Z,12.12
2018-12-07T07:15:55.915Z,11.91
2018-12-07T07:19:00.593Z,12.06
2018-12-07T07:22:05.222Z,11.89
2018-12-07T07:25:10.007Z,11.93
2018-12-07T07:28:14.649Z,11.85
2018-12-07T07:31:19.238Z,11.95
2018-12-07T07:34:23.946Z,11.93
2018-12-07T07:37:28.597Z,11.91
2018-12-07T07:40:33.232Z,11.91
2018-12-07T07:43:37.984Z,11.78
2018-12-07T07:46:42.651Z,11.86
2018-12-07T07:49:47.146Z,11.81
2018-12-07T07:52:51.784Z,11.90
2018-12-07T07:55:56.340Z,11.84
2018-12-07T07:59:01.047Z,11.85
2018-12-07T08:02:05.985Z,11.78
2018-12-07T08:05:10.632Z,11.80
2018-12-07T08:08:15.445Z,11.78
2018-12-07T08:11:20.166Z,11.82
2018-12-07T08:14:24.825Z,11.74
2018-12-07T08:17:29.410Z,11.61
2018-12-07T08:20:34.306Z,11.63
2018-12-07T08:23:39.310Z,11.71
2018-12-07T08:26:45.186Z,11.76
2018-12-07T08:29:49.872Z,11.91
2018-12-07T08:32:54.601Z,11.91
2018-12-07T08:35:59.443Z,11.85
2018-12-07T08:39:06.027Z,11.90
2018-12-07T08:42:10.748Z,11.80
2018-12-07T08:45:16.058Z,11.83
2018-12-07T08:48:20.739Z,11.95
2018-12-07T08:51:25.500Z,12.00
2018-12-07T08:54:30.076Z,12.14
2018-12-07T08:57:34.729Z,12.18
2018-12-07T09:00:39.331Z,12.20
2018-12-07T09:03:51.070Z,12.26
2018-12-07T09:06:55.721Z,12.35
2018-12-07T09:10:00.593Z,12.40
2018-12-07T09:13:05.246Z,12.53
2018-12-07T09:16:09.970Z,12.54
2018-12-07T09:19:14.714Z,12.63
2018-12-07T09:22:19.445Z,12.64
2018-12-07T09:25:24.143Z,12.64
2018-12-07T09:28:28.772Z,12.87
2018-12-07T09:31:33.402Z,12.73
2018-12-07T09:34:38.038Z,13.07
2018-12-07T09:37:42.658Z,13.26
2018-12-07T09:40:47.507Z,13.35
2018-12-07T09:43:52.050Z,13.40
2018-12-07T09:46:56.712Z,13.41
2018-12-07T09:50:01.415Z,13.33
2018-12-07T09:53:05.974Z,13.24
2018-12-07T09:56:10.567Z,12.97
2018-12-07T09:59:15.252Z,13.02
2018-12-07T10:02:19.874Z,12.96
2018-12-07T10:05:24.645Z,12.88
2018-12-07T10:08:29.151Z,13.16
2018-12-07T10:11:33.849Z,12.96
2018-12-07T10:14:38.376Z,13.09
2018-12-07T10:17:42.973Z,13.39
2018-12-07T10:20:47.687Z,13.22
2018-12-07T10:23:52.341Z,13.03
2018-12-07T10:27:06.423Z,13.01
2018-12-07T10:30:11.043Z,13.02
2018-12-07T10:33:15.781Z,12.95
2018-12-07T10:36:20.619Z,12.93
2018-12-07T10:39:25.456Z,13.09
2018-12-07T10:42:30.201Z,12.97
2018-12-07T10:45:35.099Z,12.96
2018-12-07T10:48:39.927Z,13.08
2018-12-07T10:51:44.658Z,12.97
2018-12-07T10:54:49.397Z,13.17
2018-12-07T10:57:55.394Z,13.18
2018-12-07T11:01:05.650Z,12.95
2018-12-07T11:04:15.713Z,12.78
2018-12-07T11:07:25.694Z,12.85
2018-12-07T11:10:35.543Z,12.83
2018-12-07T11:13:45.413Z,12.83
2018-12-07T11:16:55.340Z,12.96
2018-12-07T11:20:05.276Z,13.04
2018-12-07T11:23:25.126Z,13.05
2018-12-07T11:26:34.992Z,12.93
2018-12-07T11:29:44.707Z,12.88
2018-12-07T11:32:54.495Z,13.05
2018-12-07T11:35:59.232Z,12.89
2018-12-07T11:39:05.923Z,12.84
2018-12-07T11:42:10.602Z,12.80
2018-12-07T11:45:15.198Z,13.11
2018-12-07T11:48:19.731Z,12.73
2018-12-07T11:51:24.360Z,12.77
2018-12-07T11:54:29.148Z,12.80
2018-12-07T11:57:34.087Z,12.72
2018-12-07T12:00:38.770Z,12.74
2018-12-07T12:03:43.482Z,12.69
2018-12-07T12:06:48.064Z,12.69
2018-12-07T12:09:52.759Z,12.64
2018-12-07T12:12:57.373Z,12.77
2018-12-07T12:16:01.923Z,12.70
2018-12-07T12:19:06.603Z,12.61
2018-12-07T12:22:11.161Z,12.63
2018-12-07T12:25:15.888Z,12.50
2018-12-07T12:28:20.493Z,12.42
2018-12-07T12:31:25.086Z,12.36
2018-12-07T12:34:50.467Z,12.42
2018-12-07T13:03:05.801Z,12.44
2018-12-07T13:06:11.824Z,12.43
2018-12-07T13:09:16.402Z,12.35
2018-12-07T13:12:21.366Z,12.34
2018-12-07T13:15:26.146Z,12.36
2018-12-07T13:18:30.710Z,12.26
2018-12-07T13:21:35.458Z,12.27
2018-12-07T13:24:44.012Z,12.11
2018-12-07T13:27:48.799Z,12.12
2018-12-07T13:30:53.645Z,12.03
2018-12-07T13:33:58.296Z,12.10
2018-12-07T13:37:02.891Z,11.94
2018-12-07T13:40:08.280Z,11.95
2018-12-07T13:43:13.366Z,11.67
2018-12-07T13:46:18.703Z,11.70
2018-12-07T13:49:23.773Z,11.75
2018-12-07T13:52:28.673Z,11.66
2018-12-07T13:55:33.778Z,11.79
2018-12-07T13:58:39.074Z,11.65
2018-12-07T14:01:44.141Z,11.58
2018-12-07T14:04:49.013Z,11.69
2018-12-07T14:07:54.283Z,11.95
2018-12-07T14:10:59.026Z,11.75
2018-12-07T14:14:03.839Z,11.49
2018-12-07T14:17:08.588Z,11.54
2018-12-07T14:20:13.610Z,11.37
2018-12-07T14:23:18.698Z,11.34
2018-12-07T14:26:23.446Z,11.36
2018-12-07T14:29:29.714Z,11.31
2018-12-07T14:32:34.864Z,11.33
2018-12-07T14:35:39.576Z,11.20
2018-12-07T14:38:44.281Z,11.29
2018-12-07T14:41:49.037Z,11.23
2018-12-07T14:44:53.838Z,11.11
2018-12-07T14:47:58.641Z,11.13
2018-12-07T14:51:03.580Z,11.14
2018-12-07T14:54:10.108Z,11.21
2018-12-07T14:57:15.398Z,11.09
2018-12-07T15:00:20.292Z,11.23
2018-12-07T15:03:25.292Z,11.24
2018-12-07T15:06:30.280Z,11.14
2018-12-07T15:09:35.090Z,11.26
2018-12-07T15:12:39.821Z,11.23
2018-12-07T15:15:44.764Z,11.16
2018-12-07T15:18:49.560Z,11.09
2018-12-07T15:21:54.317Z,11.22
2018-12-07T15:24:59.102Z,11.18
2018-12-07T15:28:03.729Z,11.29
2018-12-07T15:31:08.478Z,11.29
2018-12-07T15:34:13.562Z,11.32
2018-12-07T15:37:18.349Z,11.27
2018-12-07T15:40:23.110Z,11.25
2018-12-07T15:43:28.129Z,11.32
2018-12-07T15:46:32.951Z,11.32
2018-12-07T15:49:40.627Z,11.30
2018-12-07T15:52:45.470Z,11.31
2018-12-07T15:55:50.366Z,11.30
2018-12-07T15:58:56.908Z,11.32
2018-12-07T16:02:01.839Z,11.35
2018-12-07T16:05:07.926Z,11.33
2018-12-07T16:08:12.983Z,11.39
2018-12-07T16:11:18.940Z,11.28
2018-12-07T16:14:24.075Z,11.27
2018-12-07T16:17:29.512Z,11.27
2018-12-07T16:20:34.991Z,11.34
2018-12-07T16:23:39.923Z,11.45
2018-12-07T16:26:45.614Z,11.37
2018-12-07T16:29:50.505Z,11.38
2018-12-07T16:32:55.441Z,11.38
2018-12-07T16:36:00.403Z,11.38
2018-12-07T16:39:07.974Z,11.37
2018-12-07T16:42:12.705Z,11.32
2018-12-07T16:45:18.744Z,11.33
2018-12-07T16:48:23.528Z,11.29
2018-12-07T16:51:30.214Z,11.28
2018-12-07T16:54:37.035Z,11.23
2018-12-07T16:57:42.872Z,11.27
2018-12-07T17:00:48.001Z,11.23
2018-12-07T17:03:52.990Z,11.26
2018-12-07T17:06:57.976Z,11.06
2018-12-07T17:10:03.031Z,11.05
2018-12-07T17:13:08.655Z,11.04
2018-12-07T17:16:13.595Z,11.10
2018-12-07T17:19:18.306Z,11.05
2018-12-07T17:22:23.089Z,11.06
2018-12-07T17:25:27.918Z,11.06
2018-12-07T17:28:32.507Z,11.16
2018-12-07T17:31:37.349Z,11.19
2018-12-07T17:34:41.975Z,11.04
2018-12-07T17:37:46.685Z,10.98
2018-12-07T17:40:51.422Z,10.85
2018-12-07T17:43:56.340Z,10.78
2018-12-07T17:47:01.576Z,10.73
2018-12-07T17:50:08.221Z,10.65
2018-12-07T17:53:13.170Z,10.59
2018-12-07T17:56:17.959Z,10.44
2018-12-07T17:59:22.884Z,10.55
2018-12-07T18:02:27.649Z,10.46
2018-12-07T18:05:32.324Z,10.52
2018-12-07T18:08:37.058Z,10.64
2018-12-07T18:11:42.023Z,10.66
2018-12-07T18:14:47.001Z,10.62
2018-12-07T18:17:51.774Z,10.49
2018-12-07T18:20:56.522Z,10.56
2018-12-07T18:24:07.864Z,10.43
2018-12-07T18:27:12.602Z,10.35
2018-12-07T18:30:17.495Z,10.28
2018-12-07T18:33:22.343Z,10.17
2018-12-07T18:36:27.181Z,9.98
2018-12-07T18:39:32.115Z,9.93
2018-12-07T18:42:36.971Z,9.94
2018-12-07T18:45:41.890Z,9.95
2018-12-07T18:48:46.551Z,9.83
2018-12-07T18:51:51.342Z,9.77
2018-12-07T18:54:56.230Z,9.82
2018-12-07T18:58:00.884Z,9.67
2018-12-07T19:01:05.821Z,9.74
2018-12-07T19:04:10.633Z,9.54
2018-12-07T19:07:15.355Z,9.56
2018-12-07T19:10:20.286Z,9.62
2018-12-07T19:13:25.314Z,9.56
2018-12-07T19:16:30.158Z,9.67
2018-12-07T19:19:34.966Z,9.68
2018-12-07T19:22:39.928Z,9.69
2018-12-07T19:25:44.701Z,9.68
2018-12-07T19:28:49.433Z,9.74
2018-12-07T19:31:54.183Z,9.83
2018-12-07T19:34:58.939Z,9.66
2018-12-07T19:38:04.095Z,9.75
2018-12-07T19:41:09.122Z,9.80
2018-12-07T19:44:14.806Z,9.92
2018-12-07T19:47:19.568Z,10.03
2018-12-07T19:50:24.297Z,9.91
2018-12-07T19:53:29.071Z,9.99
2018-12-07T19:56:33.873Z,10.07
2018-12-07T19:59:38.813Z,10.12
2018-12-07T20:02:43.731Z,10.08
2018-12-07T20:05:48.887Z,10.29
2018-12-07T20:08:54.031Z,10.23
2018-12-07T20:11:58.733Z,10.16
2018-12-07T20:15:03.699Z,10.37
2018-12-07T20:18:08.570Z,10.32
2018-12-07T20:21:13.183Z,10.33
2018-12-07T20:24:18.375Z,10.34
2018-12-07T20:27:23.412Z,10.38
2018-12-07T20:30:28.135Z,10.39
2018-12-07T20:33:32.818Z,10.43
2018-12-07T20:36:37.418Z,10.31
2018-12-07T20:39:42.164Z,10.26
2018-12-07T20:42:54.070Z,10.35
2018-12-07T20:45:58.876Z,10.41
2018-12-07T20:49:03.717Z,10.38
2018-12-07T20:52:08.573Z,10.29
2018-12-07T20:55:13.326Z,10.34
2018-12-07T20:58:17.938Z,10.17
2018-12-07T21:01:22.764Z,10.09
2018-12-07T21:04:32.545Z,10.12
2018-12-07T21:09:32.155Z,10.02
2018-12-07T21:14:04.340Z,9.83
2018-12-07T21:17:36.349Z,9.57
2018-12-07T21:20:41.281Z,9.48
2018-12-07T21:23:45.969Z,9.41
2018-12-07T21:26:50.700Z,9.32
2018-12-07T21:30:58.385Z,9.19
2018-12-07T21:34:53.353Z,9.16
2018-12-07T21:37:57.999Z,9.05
2018-12-07T21:41:02.776Z,8.87
2018-12-07T21:44:07.868Z,8.82
2018-12-07T21:47:12.888Z,8.96
2018-12-07T21:50:17.776Z,8.95
2018-12-07T21:53:22.591Z,9.10
2018-12-07T21:56:27.255Z,9.17
2018-12-07T21:59:32.018Z,9.19
2018-12-07T22:02:36.885Z,9.01
2018-12-07T22:05:42.004Z,9.01
2018-12-07T22:08:46.794Z,8.89
2018-12-07T22:11:52.269Z,8.87
2018-12-07T22:14:56.938Z,8.87
2018-12-07T22:18:01.907Z,8.81
2018-12-07T22:21:06.636Z,8.81
2018-12-07T22:24:11.463Z,8.63
2018-12-07T22:27:16.090Z,8.59
2018-12-07T22:30:20.833Z,8.33
2018-12-07T22:33:25.632Z,8.37
2018-12-07T22:36:30.341Z,8.26
2018-12-07T22:39:34.909Z,8.00
2018-12-07T22:42:39.712Z,7.96
2018-12-07T22:45:44.763Z,7.94
2018-12-07T22:48:49.758Z,7.87
2018-12-07T22:51:54.491Z,7.78
2018-12-07T22:54:59.119Z,7.45
2018-12-07T22:58:03.801Z,7.44
2018-12-07T23:01:08.795Z,7.38
2018-12-07T23:04:13.589Z,7.37
2018-12-07T23:07:18.174Z,7.22
2018-12-07T23:10:22.810Z,7.02
2018-12-07T23:13:27.464Z,7.09
2018-12-07T23:16:32.123Z,7.23
2018-12-07T23:19:36.652Z,7.21
2018-12-07T23:22:41.266Z,7.27
2018-12-07T23:25:45.828Z,7.40
2018-12-07T23:28:50.698Z,7.36
2018-12-07T23:31:55.350Z,7.22
2018-12-07T23:34:59.974Z,7.16
2018-12-07T23:38:04.570Z,6.92
2018-12-07T23:41:09.294Z,7.00
2018-12-07T23:44:16.996Z,7.02
2018-12-07T23:47:21.539Z,6.93
2018-12-07T23:50:26.227Z,6.70
2018-12-07T23:53:30.812Z,6.98
2018-12-07T23:56:35.381Z,7.09
2018-12-07T23:59:40.025Z,7.12
